Aérodrome :
LOGIN :

S'inscrire | Disclaimer

   EN    FR    IT 

 










Légende :    VFR   VFR Marginal   IFR   IFR Intensif   IFR Très Intensif
Visi : 
Plafond : 
>= 8 km
>= 3000ft
5 à 8 km
1000 à 3000 ft
1500m à 5 km
500 à 1000 ft
800 à 1500m
200 à 500 ft
< 800m
< 200 ft
Symboles :   Orages  Brouillard  Fortes neiges  Fortes précipitations  Vent > 20 kt
SIGMETs :   Divers  Orages  Givrage  Turbulence  Onde Orograph.  Cendres Volcan.







- Altitude de l'aérodrome : 256 ft
- Code IATA : CFR
- Voir les cartes d'approche


LFRK - Caen

DERNIER METAR :
  • 210730Z AUTO VRB03KT 9999 BKN010 OVC021 20/18 Q1021 BECMG BKN030

METARs EXPIRÉS :
  • 210700Z AUTO 27003KT 9999 SCT008 SCT019 OVC036 19/18 Q1021 TEMPO BKN005
  • 210230Z AUTO 23002KT 9999 OVC033 18/17 Q1021
  • 210630Z AUTO 25003KT 9999 FEW007 SCT027 OVC035 19/17 Q1021 TEMPO BKN005
  • 210600Z AUTO 23002KT 9999 FEW009 BKN028 OVC036 18/17 Q1021 TEMPO BKN005
  • 210530Z AUTO 22002KT 9999 SCT008 OVC032 18/17 Q1021 TEMPO BKN005
  • 210500Z AUTO 21002KT 9999 FEW009 OVC032 18/17 Q1021

TAF TAF LFRK
Valide du 21 à 06h jusqu'au 21 à 15h UTC


210500Z 2106/2115 VRB03KT 9999 BKN030
PROB40
TEMPO 2106/2109 BKN005
BECMG 2113/2115 35010KT
Météo : +33 2 31 26 68 11
Pas de NOTAMs connus pour ce terrain.



MET'MAP, la Météo Aéronautique d'un coup d'oeil ! - Copyright ORBIFLY Décembre 2007 - Disclaimer

ORBIFLY MET'MAP TEAM :

Programmation & Développement : Alexandra Zaïnal
Conception & Développement : Baudouin d'Aumeries
Co-Programmation & Développement : Marc-Olivier Méhu
Soutien technique & logistique : Manuel Goepfert

Contact : metmap@orbifly.com




SOURCES & CREDITS :

   NOAA